createdAt,value
2019-04-22T00:00:44.548Z,1.37
2019-04-22T00:03:15.202Z,1.60
2019-04-22T00:06:00.316Z,1.40
2019-04-22T00:08:38.974Z,1.50
2019-04-22T00:11:13.063Z,1.70
2019-04-22T00:13:46.432Z,1.60
2019-04-22T00:16:07.209Z,1.30
2019-04-22T00:18:57.846Z,1.60
2019-04-22T00:21:12.728Z,1.30
2019-04-22T00:23:43.372Z,1.27
2019-04-22T00:26:16.527Z,1.30
2019-04-22T00:28:44.073Z,1.50
2019-04-22T00:31:20.900Z,1.60
2019-04-22T00:33:52.964Z,1.40
2019-04-22T00:36:23.644Z,1.67
2019-04-22T00:38:58.452Z,1.30
2019-04-22T00:41:31.187Z,1.50
2019-04-22T00:44:05.260Z,1.50
2019-04-22T00:46:34.540Z,1.50
2019-04-22T00:49:49.084Z,1.60
2019-04-22T00:51:31.584Z,1.40
2019-04-22T00:53:56.161Z,1.20
2019-04-22T00:56:27.896Z,1.40
2019-04-22T00:59:02.847Z,1.50
2019-04-22T01:01:31.696Z,1.30
2019-04-22T01:04:25.626Z,1.33
2019-04-22T01:06:35.551Z,1.30
2019-04-22T01:09:04.769Z,1.37
2019-04-22T01:11:33.576Z,1.70
2019-04-22T01:14:04.866Z,1.30
2019-04-22T01:16:39.272Z,1.37
2019-04-22T01:19:07.255Z,1.20
2019-04-22T01:24:05.935Z,1.43
2019-04-22T01:26:30.092Z,1.50
2019-04-22T01:28:58.876Z,1.30
2019-04-22T01:31:21.933Z,1.37
2019-04-22T01:34:04.627Z,1.20
2019-04-22T01:36:38.665Z,1.40
2019-04-22T01:39:10.020Z,1.40
2019-04-22T01:44:25.330Z,1.40
2019-04-22T01:49:15.480Z,1.33
2019-04-22T01:54:25.023Z,1.33
2019-04-22T01:56:51.045Z,1.43
2019-04-22T01:59:11.005Z,1.50
2019-04-22T02:01:51.692Z,1.30
2019-04-22T02:04:26.948Z,1.20
2019-04-22T02:06:49.603Z,1.23
2019-04-22T02:09:37.755Z,1.50
2019-04-22T02:11:57.100Z,1.20
2019-04-22T02:14:26.965Z,1.20
2019-04-22T02:16:56.763Z,1.30
2019-04-22T02:19:35.721Z,1.10
2019-04-22T02:21:56.459Z,1.50
2019-04-22T02:24:26.354Z,1.10
2019-04-22T02:29:29.931Z,1.30
2019-04-22T02:32:12.848Z,1.10
2019-04-22T02:34:46.081Z,1.70
2019-04-22T02:36:58.224Z,1.50
2019-04-22T02:39:23.717Z,1.53
2019-04-22T02:42:03.002Z,1.40
2019-04-22T02:44:28.705Z,1.40
2019-04-22T02:47:10.147Z,1.50
2019-04-22T02:49:46.490Z,1.50
2019-04-22T02:52:07.644Z,1.13
2019-04-22T02:57:19.787Z,1.50
2019-04-22T03:02:07.243Z,1.50
2019-04-22T03:04:33.883Z,1.50
2019-04-22T03:06:55.931Z,1.67
2019-04-22T03:14:48.275Z,1.43
2019-04-22T03:17:10.587Z,1.70
2019-04-22T03:22:12.635Z,1.43
2019-04-22T03:24:53.857Z,1.30
2019-04-22T03:27:07.792Z,1.70
2019-04-22T03:30:36.442Z,1.53
2019-04-22T03:35:31.605Z,1.40
2019-04-22T03:37:48.124Z,1.60
2019-04-22T03:42:38.582Z,1.60
2019-04-22T03:45:17.017Z,1.30
2019-04-22T03:50:15.704Z,1.37
2019-04-22T03:52:27.135Z,1.40
2019-04-22T03:57:48.950Z,1.40
2019-04-22T04:02:49.785Z,1.53
2019-04-22T04:05:09.913Z,1.60
2019-04-22T04:07:47.550Z,1.50
2019-04-22T04:10:20.057Z,1.80
2019-04-22T04:12:49.433Z,1.57
2019-04-22T04:15:21.643Z,1.67
2019-04-22T04:17:44.481Z,1.47
2019-04-22T04:32:52.700Z,1.70
2019-04-22T04:40:21.385Z,2.10
2019-04-22T04:42:46.041Z,2.00
2019-04-22T04:45:38.263Z,1.80
2019-04-22T04:50:16.030Z,1.93
2019-04-22T04:55:26.703Z,1.80
2019-04-22T04:57:57.727Z,1.90
2019-04-22T05:05:20.620Z,1.90
2019-04-22T05:15:21.173Z,2.10
2019-04-22T05:17:55.512Z,2.10
2019-04-22T05:20:29.372Z,2.10
2019-04-22T05:22:44.588Z,2.23
2019-04-22T05:25:17.882Z,2.00
2019-04-22T05:33:01.851Z,2.00
2019-04-22T05:37:49.990Z,2.00
2019-04-22T05:40:20.507Z,2.30
2019-04-22T05:50:21.283Z,2.30
2019-04-22T05:52:54.393Z,2.10
2019-04-22T05:55:43.627Z,2.20
2019-04-22T05:57:57.726Z,2.10
2019-04-22T06:00:36.894Z,2.20
2019-04-22T06:02:56.716Z,2.07
2019-04-22T06:05:24.475Z,2.17
2019-04-22T06:07:52.512Z,2.47
2019-04-22T06:10:35.767Z,2.07
2019-04-22T06:12:57.790Z,2.47
2019-04-22T06:15:28.807Z,2.07
2019-04-22T06:18:09.407Z,2.03
2019-04-22T06:20:36.982Z,1.97
2019-04-22T06:25:55.351Z,2.00
2019-04-22T06:28:15.599Z,1.90
2019-04-22T06:30:44.016Z,2.00
2019-04-22T06:35:45.766Z,1.87
2019-04-22T06:38:28.133Z,1.90
2019-04-22T06:43:20.082Z,2.03
2019-04-22T06:45:41.653Z,2.07
2019-04-22T06:50:43.350Z,2.00
2019-04-22T06:53:14.588Z,1.90
2019-04-22T06:55:46.975Z,1.73
2019-04-22T06:58:17.618Z,2.47
2019-04-22T07:05:46.385Z,2.77
2019-04-22T07:10:47.658Z,2.10
2019-04-22T07:13:23.653Z,1.80
2019-04-22T07:15:50.579Z,1.97
2019-04-22T07:18:27.493Z,1.60
2019-04-22T07:20:50.794Z,2.00
2019-04-22T07:25:45.259Z,2.00
2019-04-22T07:30:58.710Z,2.37
2019-04-22T07:36:18.154Z,2.07
2019-04-22T07:45:53.738Z,1.80
2019-04-22T07:48:44.790Z,1.80
2019-04-22T07:51:02.911Z,1.90
2019-04-22T07:53:28.920Z,2.00
2019-04-22T07:56:00.176Z,2.30
2019-04-22T07:58:29.025Z,2.00
2019-04-22T08:01:04.109Z,1.87
2019-04-22T08:03:39.375Z,2.40
2019-04-22T08:06:12.242Z,2.23
2019-04-22T08:08:29.098Z,2.00
2019-04-22T08:11:11.748Z,2.33
2019-04-22T08:13:36.638Z,2.50
2019-04-22T08:16:04.763Z,1.77
2019-04-22T08:18:54.076Z,1.97
2019-04-22T08:21:23.017Z,2.07
2019-04-22T08:23:42.753Z,1.80
2019-04-22T08:26:05.395Z,2.20
2019-04-22T08:28:50.863Z,2.03
2019-04-22T08:31:14.819Z,2.00
2019-04-22T08:33:44.431Z,2.13
2019-04-22T08:36:18.032Z,1.93
2019-04-22T08:38:50.463Z,1.70
2019-04-22T08:46:23.412Z,1.90
2019-04-22T08:48:49.568Z,2.10
2019-04-22T08:51:20.980Z,2.17
2019-04-22T08:53:56.178Z,1.93
2019-04-22T08:56:29.408Z,1.70
2019-04-22T08:58:58.800Z,2.33
2019-04-22T09:01:22.666Z,2.10
2019-04-22T09:03:58.498Z,2.10
2019-04-22T09:06:48.083Z,1.90
2019-04-22T09:08:55.237Z,2.23
2019-04-22T09:11:27.029Z,2.00
2019-04-22T09:13:55.699Z,2.10
2019-04-22T09:16:33.230Z,1.90
2019-04-22T09:18:59.239Z,1.87
2019-04-22T09:24:00.769Z,2.07
2019-04-22T09:26:30.955Z,2.10
2019-04-22T09:29:34.187Z,2.17
2019-04-22T09:31:33.417Z,2.37
2019-04-22T09:33:53.254Z,1.67
2019-04-22T09:39:02.942Z,2.20
2019-04-22T09:41:43.341Z,2.20
2019-04-22T09:44:05.568Z,1.80
2019-04-22T09:49:12.342Z,2.20
2019-04-22T09:51:36.972Z,2.30
2019-04-22T09:54:19.411Z,2.13
2019-04-22T09:56:47.604Z,1.90
2019-04-22T09:59:07.723Z,2.03
2019-04-22T10:04:07.896Z,2.10
2019-04-22T10:06:39.419Z,2.13
2019-04-22T10:09:34.953Z,2.10
2019-04-22T10:14:12.516Z,1.90
2019-04-22T10:16:43.624Z,2.00
2019-04-22T10:19:11.040Z,2.10
2019-04-22T10:21:54.167Z,1.90
2019-04-22T10:24:16.755Z,1.80
2019-04-22T10:26:44.019Z,1.67
2019-04-22T10:29:16.997Z,1.80
2019-04-22T10:31:52.700Z,2.00
2019-04-22T10:34:05.604Z,1.67
2019-04-22T10:36:23.614Z,1.83
2019-04-22T10:38:54.989Z,1.80
2019-04-22T10:41:23.646Z,1.93
2019-04-22T10:43:57.042Z,1.87
2019-04-22T10:46:26.379Z,2.07
2019-04-22T10:48:57.981Z,1.93
2019-04-22T10:51:26.742Z,2.00
2019-04-22T10:53:55.682Z,2.13
2019-04-22T10:56:25.303Z,1.73
2019-04-22T10:58:54.113Z,2.10
2019-04-22T11:01:23.274Z,2.37
2019-04-22T11:03:53.123Z,1.60
2019-04-22T11:06:23.311Z,2.10
2019-04-22T11:08:57.732Z,2.00
2019-04-22T11:11:34.840Z,2.40
2019-04-22T11:13:53.761Z,1.93
2019-04-22T11:16:23.409Z,2.03
2019-04-22T11:18:52.073Z,2.07
2019-04-22T11:21:20.848Z,2.07
2019-04-22T11:23:50.572Z,2.00
2019-04-22T11:26:19.874Z,2.00
2019-04-22T11:28:51.764Z,1.97
2019-04-22T11:31:20.758Z,2.10
2019-04-22T11:33:50.277Z,2.00
2019-04-22T11:36:19.910Z,1.80
2019-04-22T11:38:54.073Z,2.10
2019-04-22T11:41:19.525Z,1.70
2019-04-22T11:43:49.442Z,2.10
2019-04-22T11:46:18.548Z,2.17
2019-04-22T11:48:47.708Z,2.07
2019-04-22T11:51:18.011Z,2.10
2019-04-22T11:53:47.121Z,1.80
2019-04-22T11:56:16.826Z,2.00
2019-04-22T11:58:46.976Z,2.40
2019-04-22T12:01:16.971Z,2.00
2019-04-22T12:03:46.308Z,2.37
2019-04-22T12:06:15.814Z,1.97
2019-04-22T12:08:45.898Z,2.10
2019-04-22T12:11:16.587Z,2.00
2019-04-22T12:13:46.272Z,1.93
2019-04-22T12:16:15.171Z,1.77
2019-04-22T12:18:44.973Z,1.80
2019-04-22T12:21:15.164Z,1.93
2019-04-22T12:23:45.208Z,2.07
2019-04-22T12:26:18.527Z,1.83
2019-04-22T12:28:44.907Z,2.20
2019-04-22T12:31:15.543Z,1.70
2019-04-22T12:33:47.670Z,1.90
2019-04-22T12:36:18.647Z,2.03
2019-04-22T12:38:47.587Z,2.17
2019-04-22T12:41:18.003Z,1.70
2019-04-22T12:43:47.393Z,1.70
2019-04-22T12:46:16.508Z,2.17
2019-04-22T12:48:46.907Z,1.93
2019-04-22T12:51:15.881Z,2.33
2019-04-22T12:53:48.752Z,2.03
2019-04-22T12:56:17.548Z,2.03
2019-04-22T12:58:49.837Z,2.00
2019-04-22T13:01:19.107Z,1.90
2019-04-22T13:03:48.039Z,2.07
2019-04-22T13:06:17.573Z,1.70
2019-04-22T13:08:47.618Z,2.27
2019-04-22T13:11:20.239Z,1.80
2019-04-22T13:13:47.053Z,2.03
2019-04-22T13:16:17.372Z,2.00
2019-04-22T13:18:53.390Z,1.90
2019-04-22T13:21:16.423Z,2.20
2019-04-22T13:23:46.524Z,2.03
2019-04-22T13:26:16.866Z,1.97
2019-04-22T13:28:47.198Z,2.23
2019-04-22T13:31:18.989Z,2.00
2019-04-22T13:33:46.980Z,2.13
2019-04-22T13:36:19.128Z,2.00
2019-04-22T13:38:47.103Z,1.73
2019-04-22T13:41:24.039Z,2.13
2019-04-22T13:43:47.231Z,2.30
2019-04-22T13:46:16.764Z,1.73
2019-04-22T13:49:11.183Z,2.20
2019-04-22T13:51:50.650Z,1.97
2019-04-22T13:54:47.131Z,1.87
2019-04-22T13:56:40.306Z,2.03
2019-04-22T13:58:58.503Z,1.93
2019-04-22T14:01:20.492Z,1.70
2019-04-22T14:03:54.616Z,1.80
2019-04-22T14:06:24.833Z,1.87
2019-04-22T14:08:53.750Z,2.20
2019-04-22T14:11:32.370Z,1.80
2019-04-22T14:13:52.822Z,2.07
2019-04-22T14:16:22.787Z,1.87
2019-04-22T14:18:54.004Z,2.10
2019-04-22T14:21:24.937Z,1.97
2019-04-22T14:23:53.582Z,2.00
2019-04-22T14:26:23.021Z,2.10
2019-04-22T14:28:53.159Z,2.37
2019-04-22T14:31:22.494Z,2.30
2019-04-22T14:33:55.175Z,2.10
2019-04-22T14:36:21.457Z,2.10
2019-04-22T14:38:50.216Z,2.10
2019-04-22T14:41:39.030Z,2.10
2019-04-22T14:44:56.440Z,1.93
2019-04-22T14:46:53.549Z,1.60
2019-04-22T14:49:19.753Z,1.80
2019-04-22T14:51:44.206Z,2.00
2019-04-22T14:54:09.750Z,1.87
2019-04-22T14:56:22.695Z,2.00
2019-04-22T14:58:53.178Z,1.97
2019-04-22T15:01:22.078Z,1.93
2019-04-22T15:03:50.691Z,1.87
2019-04-22T15:06:20.125Z,1.70
2019-04-22T15:08:49.042Z,1.60
2019-04-22T15:11:21.304Z,1.60
2019-04-22T15:13:53.548Z,1.90
2019-04-22T15:16:30.300Z,1.80
2019-04-22T15:19:15.940Z,2.17
2019-04-22T15:21:45.091Z,1.83
2019-04-22T15:24:27.337Z,1.97
2019-04-22T15:26:58.572Z,1.80
2019-04-22T15:29:27.531Z,1.90
2019-04-22T15:31:57.561Z,1.80
2019-04-22T15:34:27.990Z,1.87
2019-04-22T15:36:58.040Z,1.90
2019-04-22T15:39:27.318Z,2.00
2019-04-22T15:42:04.450Z,1.63
2019-04-22T15:44:26.417Z,1.70
2019-04-22T15:46:57.968Z,1.80
2019-04-22T15:49:27.841Z,1.80
2019-04-22T15:51:58.876Z,1.73
2019-04-22T15:54:27.801Z,1.87
2019-04-22T15:56:59.037Z,1.77
2019-04-22T15:59:46.566Z,1.80
2019-04-22T16:02:02.333Z,1.60
2019-04-22T16:04:30.913Z,1.73
2019-04-22T16:07:01.075Z,1.63
2019-04-22T16:09:34.980Z,1.57
2019-04-22T16:12:16.176Z,1.57
2019-04-22T16:14:41.092Z,1.60
2019-04-22T16:17:06.419Z,2.03
2019-04-22T16:19:35.202Z,1.50
2019-04-22T16:22:13.342Z,1.40
2019-04-22T16:24:45.848Z,1.60
2019-04-22T16:27:18.656Z,1.37
2019-04-22T16:29:47.485Z,1.60
2019-04-22T16:32:19.270Z,1.63
2019-04-22T16:34:47.906Z,1.80
2019-04-22T16:37:23.027Z,1.50
2019-04-22T16:39:54.777Z,1.60
2019-04-22T16:42:31.643Z,1.90
2019-04-22T16:44:53.822Z,1.50
2019-04-22T16:47:23.673Z,1.80
2019-04-22T16:49:55.317Z,1.57
2019-04-22T16:52:24.123Z,1.30
2019-04-22T16:54:52.782Z,1.87
2019-04-22T16:57:21.864Z,1.50
2019-04-22T16:59:50.819Z,1.47
2019-04-22T17:02:24.590Z,1.50
2019-04-22T17:05:05.238Z,1.90
2019-04-22T17:07:34.169Z,1.67
2019-04-22T17:10:03.991Z,1.90
2019-04-22T17:12:45.790Z,1.60
2019-04-22T17:15:08.047Z,1.67
2019-04-22T17:17:33.640Z,1.40
2019-04-22T17:20:03.089Z,1.90
2019-04-22T17:22:31.872Z,1.50
2019-04-22T17:25:00.513Z,1.63
2019-04-22T17:27:31.407Z,1.60
2019-04-22T17:29:59.765Z,1.67
2019-04-22T17:32:28.889Z,1.50
2019-04-22T17:34:57.626Z,1.50
2019-04-22T17:37:30.402Z,1.30
2019-04-22T17:40:14.657Z,1.40
2019-04-22T17:42:46.166Z,1.73
2019-04-22T17:45:22.297Z,1.80
2019-04-22T17:48:12.761Z,1.70
2019-04-22T17:50:48.454Z,1.40
2019-04-22T17:53:24.129Z,1.60
2019-04-22T17:55:49.231Z,1.50
2019-04-22T17:58:17.607Z,1.53
2019-04-22T18:00:47.190Z,1.63
2019-04-22T18:03:11.782Z,1.73
2019-04-22T18:05:34.764Z,1.57
2019-04-22T18:08:17.796Z,1.80
2019-04-22T18:10:47.659Z,1.50
2019-04-22T18:13:30.399Z,1.70
2019-04-22T18:15:48.716Z,1.70
2019-04-22T18:18:24.459Z,1.40
2019-04-22T18:20:45.850Z,1.53
2019-04-22T18:23:09.634Z,1.60
2019-04-22T18:25:52.420Z,1.50
2019-04-22T18:28:25.719Z,1.73
2019-04-22T18:30:53.023Z,1.53
2019-04-22T18:33:31.703Z,1.60
2019-04-22T18:35:54.031Z,1.50
2019-04-22T18:38:39.719Z,1.70
2019-04-22T18:40:59.000Z,1.80
2019-04-22T18:43:35.707Z,1.93
2019-04-22T18:46:05.334Z,1.77
2019-04-22T18:48:29.694Z,1.70
2019-04-22T18:51:12.606Z,1.97
2019-04-22T18:53:54.112Z,1.60
2019-04-22T18:56:39.151Z,1.80
2019-04-22T18:58:59.433Z,1.70
2019-04-22T19:01:19.915Z,1.60
2019-04-22T19:04:01.331Z,1.60
2019-04-22T19:06:46.346Z,1.47
2019-04-22T19:09:15.421Z,1.50
2019-04-22T19:11:52.102Z,1.63
2019-04-22T19:14:17.568Z,1.80
2019-04-22T19:16:47.962Z,1.77
2019-04-22T19:19:29.804Z,1.80
2019-04-22T19:21:49.689Z,1.60
2019-04-22T19:24:14.986Z,1.70
2019-04-22T19:29:21.995Z,1.50
2019-04-22T19:31:51.359Z,1.50
2019-04-22T19:34:22.232Z,1.70
2019-04-22T19:36:51.834Z,1.87
2019-04-22T19:39:21.323Z,1.50
2019-04-22T19:41:56.566Z,1.97
2019-04-22T19:44:21.451Z,1.87
2019-04-22T19:47:06.399Z,1.67
2019-04-22T19:49:33.431Z,1.70
2019-04-22T19:54:23.237Z,1.83
2019-04-22T19:56:45.611Z,1.50
2019-04-22T19:59:14.908Z,1.77
2019-04-22T20:01:52.627Z,1.80
2019-04-22T20:04:56.192Z,1.70
2019-04-22T20:07:17.892Z,1.50
2019-04-22T20:09:55.512Z,1.80
2019-04-22T20:12:16.445Z,1.40
2019-04-22T20:14:52.513Z,1.77
2019-04-22T20:17:24.142Z,1.60
2019-04-22T20:19:56.044Z,1.77
2019-04-22T20:22:17.628Z,1.50
2019-04-22T20:24:44.909Z,1.73
2019-04-22T20:27:28.532Z,2.20
2019-04-22T20:29:55.090Z,1.87
2019-04-22T20:32:26.354Z,1.30
2019-04-22T20:34:57.910Z,1.50
2019-04-22T20:39:52.491Z,1.50
2019-04-22T20:42:38.309Z,1.60
2019-04-22T20:44:56.940Z,2.13
2019-04-22T20:47:23.484Z,1.63
2019-04-22T20:50:01.986Z,1.90
2019-04-22T20:52:34.422Z,1.80
2019-04-22T20:54:57.271Z,1.70
2019-04-22T20:57:32.090Z,1.90
2019-04-22T20:59:55.595Z,1.57
2019-04-22T21:02:25.245Z,1.87
2019-04-22T21:04:49.059Z,1.60
2019-04-22T21:07:26.658Z,1.70
2019-04-22T21:09:58.056Z,1.63
2019-04-22T21:12:22.470Z,1.60
2019-04-22T21:15:06.786Z,1.63
2019-04-22T21:17:33.730Z,1.70
2019-04-22T21:20:06.838Z,1.40
2019-04-22T21:22:33.849Z,1.60
2019-04-22T21:24:57.792Z,1.70
2019-04-22T21:27:37.047Z,1.93
2019-04-22T21:29:52.042Z,2.00
2019-04-22T21:32:34.498Z,1.60
2019-04-22T21:35:07.658Z,1.90
2019-04-22T21:37:38.604Z,1.80
2019-04-22T21:39:58.563Z,1.90
2019-04-22T21:42:43.557Z,1.40
2019-04-22T21:45:03.325Z,1.80
2019-04-22T21:47:48.780Z,1.70
2019-04-22T21:50:30.995Z,1.70
2019-04-22T21:52:40.516Z,1.50
2019-04-22T21:55:21.467Z,1.70
2019-04-22T21:57:52.668Z,1.67
2019-04-22T22:00:25.078Z,1.40
2019-04-22T22:02:45.745Z,1.50
2019-04-22T22:05:10.158Z,1.70
2019-04-22T22:07:30.990Z,1.73
2019-04-22T22:10:16.340Z,1.73
2019-04-22T22:12:48.374Z,1.77
2019-04-22T22:15:23.121Z,1.90
2019-04-22T22:17:51.509Z,1.50
2019-04-22T22:20:15.938Z,1.70
2019-04-22T22:23:05.263Z,1.47
2019-04-22T22:25:23.678Z,1.73
2019-04-22T22:27:58.554Z,1.90
2019-04-22T22:33:05.491Z,1.90
2019-04-22T22:35:36.084Z,1.73
2019-04-22T22:38:05.213Z,1.70
2019-04-22T22:40:19.838Z,1.80
2019-04-22T22:42:49.511Z,1.70
2019-04-22T22:45:26.229Z,1.87
2019-04-22T22:48:16.916Z,1.60
2019-04-22T22:50:38.149Z,1.83
2019-04-22T22:53:21.242Z,1.60
2019-04-22T22:55:39.816Z,1.67
2019-04-22T22:58:10.352Z,1.73
2019-04-22T23:00:42.805Z,1.90
2019-04-22T23:05:49.225Z,1.67
2019-04-22T23:08:17.088Z,1.57
2019-04-22T23:10:52.003Z,1.80
2019-04-22T23:13:21.542Z,1.90
2019-04-22T23:15:39.272Z,1.70
2019-04-22T23:17:54.118Z,1.50
2019-04-22T23:20:27.706Z,1.80
2019-04-22T23:23:17.361Z,1.50
2019-04-22T23:25:50.238Z,1.70
2019-04-22T23:28:13.089Z,1.73
2019-04-22T23:30:38.938Z,1.83
2019-04-22T23:33:40.547Z,1.60
2019-04-22T23:36:03.859Z,2.13
2019-04-22T23:38:47.636Z,1.50
2019-04-22T23:41:39.445Z,1.70
2019-04-22T23:44:02.052Z,1.93
2019-04-22T23:46:30.691Z,1.60
2019-04-22T23:48:58.019Z,1.77
2019-04-22T23:51:29.707Z,1.80
2019-04-22T23:54:11.124Z,1.70
2019-04-22T23:56:29.329Z,1.70
2019-04-22T23:59:06.871Z,1.70
